Time;durP1;ratioP1;P1;durP2;ratioP2;P2;SDS_P1;SDS_P2;PMS_P1;PMS_P2;Temp;Humidity;BMP_temperature;BMP_pressure;BME280_temperature;BME280_humidity;BME280_pressure;Samples;Min_cycle;Max_cycle;Signal;HPM_P1;HPM_P2
2021/03/21 00:00:44;;;;;;;23.10;13.65;;;;;;;2.05;79.21;94472.91;4205085;28;20249;-83
2021/03/21 00:02:45;;;;;;;22.60;12.90;;;;;;;1.94;79.56;94470.28;4246826;27;20051;-84
2021/03/21 00:04:48;;;;;;;25.45;14.25;;;;;;;1.93;79.94;94477.19;4216162;28;20064;-84
2021/03/21 00:06:49;;;;;;;21.80;13.98;;;;;;;1.90;79.83;94484.38;4216085;28;20450;-83
2021/03/21 00:08:51;;;;;;;22.95;13.25;;;;;;;1.94;79.82;94486.59;4234908;28;20567;-85
2021/03/21 00:10:55;;;;;;;23.60;13.57;;;;;;;1.95;79.47;94483.06;4217681;28;20400;-83
2021/03/21 00:12:57;;;;;;;19.60;12.18;;;;;;;1.91;79.76;94471.31;4234039;28;20054;-86
2021/03/21 00:14:58;;;;;;;21.00;12.98;;;;;;;1.91;79.77;94473.06;4233033;28;20138;-82
2021/03/21 00:17:00;;;;;;;19.17;12.20;;;;;;;1.93;80.13;94473.78;4217332;28;20044;-83
2021/03/21 00:19:04;;;;;;;18.83;12.43;;;;;;;1.89;80.08;94465.44;4222475;28;20083;-82
2021/03/21 00:21:08;;;;;;;20.58;12.50;;;;;;;1.77;80.27;94477.50;4217988;28;20052;-83
2021/03/21 00:23:09;;;;;;;21.92;13.40;;;;;;;1.66;80.84;94489.53;4235598;28;20054;-83
2021/03/21 00:25:14;;;;;;;22.60;13.02;;;;;;;1.69;81.26;94477.22;4217893;28;20051;-84
2021/03/21 00:27:15;;;;;;;20.02;13.55;;;;;;;1.76;81.06;94473.25;4231578;28;20062;-83
2021/03/21 00:29:16;;;;;;;21.17;13.05;;;;;;;1.80;80.56;94472.09;4218158;28;20050;-85
2021/03/21 00:31:17;;;;;;;23.05;13.80;;;;;;;1.88;80.76;94458.63;4236174;28;20058;-82
2021/03/21 00:33:20;;;;;;;21.95;13.38;;;;;;;1.93;79.99;94453.94;4217753;28;20052;-83
2021/03/21 00:35:23;;;;;;;21.00;13.20;;;;;;;1.91;80.44;94453.22;4218643;28;20059;-83
2021/03/21 00:37:24;;;;;;;20.60;13.32;;;;;;;1.94;79.97;94434.94;4215875;28;20045;-83
2021/03/21 00:39:25;;;;;;;21.30;12.95;;;;;;;1.94;79.82;94426.38;4236187;28;20144;-82
2021/03/21 00:41:28;;;;;;;20.50;12.48;;;;;;;1.95;79.67;94434.00;4235540;28;20043;-83
2021/03/21 00:43:29;;;;;;;21.35;12.40;;;;;;;1.91;80.21;94429.16;4234715;28;20047;-84
2021/03/21 00:45:30;;;;;;;21.27;13.05;;;;;;;1.85;80.00;94438.22;4233681;28;20072;-82
2021/03/21 00:47:32;;;;;;;17.05;11.48;;;;;;;1.87;80.36;94438.88;4234698;28;20112;-83
2021/03/21 00:49:33;;;;;;;17.05;11.43;;;;;;;1.80;80.44;94435.13;4223180;28;20048;-82
2021/03/21 00:51:34;;;;;;;15.00;10.32;;;;;;;1.87;80.40;94443.25;4234652;28;20044;-82
2021/03/21 00:53:36;;;;;;;15.35;9.88;;;;;;;1.93;80.23;94428.09;4216023;28;20047;-83
2021/03/21 00:55:37;;;;;;;13.95;10.10;;;;;;;2.02;80.51;94431.78;4219419;28;20487;-84
2021/03/21 00:57:43;;;;;;;11.52;8.60;;;;;;;2.00;79.87;94437.06;4212938;28;20594;-83
2021/03/21 00:59:44;;;;;;;12.98;9.05;;;;;;;2.05;79.91;94445.28;4220583;27;20415;-82
2021/03/21 01:01:45;;;;;;;12.25;8.70;;;;;;;2.08;79.45;94440.84;4224054;28;20051;-82
2021/03/21 01:03:47;;;;;;;10.77;8.05;;;;;;;2.12;79.56;94421.59;4226232;28;20467;-82
2021/03/21 01:05:57;;;;;;;8.25;6.30;;;;;;;1.99;79.40;94432.00;4226348;28;20239;-83
2021/03/21 01:07:59;;;;;;;9.00;6.63;;;;;;;1.96;79.83;94414.97;4203518;28;20056;-83
2021/03/21 01:10:00;;;;;;;8.88;6.13;;;;;;;1.94;79.88;94419.44;4210585;28;20048;-82
2021/03/21 01:12:02;;;;;;;7.65;5.78;;;;;;;1.98;80.08;94438.09;4223772;28;20413;-85
2021/03/21 01:14:04;;;;;;;6.00;4.57;;;;;;;1.98;79.73;94420.00;4244258;27;20051;-82
2021/03/21 01:16:08;;;;;;;6.28;4.32;;;;;;;1.99;79.92;94435.41;4218191;28;20052;-83
2021/03/21 01:18:22;;;;;;;5.50;4.25;;;;;;;2.03;79.73;94433.44;4211674;28;20044;-83
2021/03/21 01:20:26;;;;;;;3.83;3.28;;;;;;;2.01;79.43;94410.28;4215542;28;20185;-83
2021/03/21 01:22:27;;;;;;;4.22;3.50;;;;;;;2.09;79.47;94406.28;4232372;28;20059;-84
2021/03/21 01:24:28;;;;;;;4.80;3.22;;;;;;;2.02;79.59;94393.00;4231579;27;20047;-84
2021/03/21 01:26:30;;;;;;;5.18;3.65;;;;;;;2.04;79.68;94397.16;4215685;28;20087;-82
2021/03/21 01:28:35;;;;;;;4.60;3.15;;;;;;;1.91;79.76;94414.47;4232934;28;20039;-83
2021/03/21 01:30:36;;;;;;;3.65;2.95;;;;;;;1.82;80.28;94397.09;4246866;27;20429;-82
2021/03/21 01:32:38;;;;;;;4.38;3.05;;;;;;;1.88;80.23;94422.47;4233393;28;20052;-83
2021/03/21 01:34:40;;;;;;;3.40;2.72;;;;;;;1.89;80.42;94429.28;4233644;28;20050;-81
2021/03/21 01:36:41;;;;;;;3.72;2.60;;;;;;;1.91;80.20;94431.75;4233733;28;20051;-83
2021/03/21 01:38:42;;;;;;;3.47;2.40;;;;;;;1.94;79.85;94439.28;4215103;28;20052;-82
2021/03/21 01:40:44;;;;;;;3.53;2.45;;;;;;;1.94;79.69;94436.72;4214652;28;20056;-83
2021/03/21 01:42:47;;;;;;;2.95;2.40;;;;;;;1.89;79.87;94437.03;4218418;28;20056;-81
2021/03/21 01:44:53;;;;;;;2.83;2.30;;;;;;;1.82;80.14;94420.34;4224823;28;20518;-69
2021/03/21 01:46:54;;;;;;;2.95;2.28;;;;;;;1.68;80.83;94399.84;4228169;28;20863;-70
2021/03/21 01:48:57;;;;;;;2.83;2.40;;;;;;;1.65;80.69;94400.91;4209896;28;20102;-70
2021/03/21 01:51:11;;;;;;;2.75;2.00;;;;;;;1.65;81.17;94408.66;4210972;28;20056;-69
2021/03/21 01:53:13;;;;;;;3.13;2.55;;;;;;;1.55;81.11;94394.75;4228414;28;20044;-69
2021/03/21 01:55:15;;;;;;;2.35;2.00;;;;;;;1.70;81.18;94387.66;4227360;28;20493;-71
2021/03/21 01:57:16;;;;;;;2.88;2.05;;;;;;;1.68;80.57;94395.53;4210161;28;20044;-69
2021/03/21 01:59:30;;;;;;;2.63;1.85;;;;;;;1.73;80.73;94385.69;4191918;28;20056;-70
2021/03/21 02:01:31;;;;;;;2.53;1.80;;;;;;;1.63;80.90;94367.47;4222602;28;20052;-82
2021/03/21 02:03:32;;;;;;;2.88;1.75;;;;;;;1.67;81.06;94380.16;4214517;28;20347;-82
2021/03/21 02:05:36;;;;;;;2.83;1.58;;;;;;;1.62;80.73;94388.25;4231911;28;20509;-83
2021/03/21 02:07:40;;;;;;;;;;;;;;;1.61;80.74;94364.19;4230371;28;20070;-84
2021/03/21 02:09:54;;;;;;;1.90;1.40;;;;;;;1.56;81.22;94391.25;4229626;28;19919;-81
2021/03/21 02:12:03;;;;;;;2.35;1.50;;;;;;;1.51;81.11;94375.28;4217032;28;20047;-82
2021/03/21 02:14:17;;;;;;;1.90;1.30;;;;;;;1.58;81.38;94377.31;4227527;28;20551;-81
2021/03/21 02:16:24;;;;;;;1.95;1.40;;;;;;;1.56;81.74;94397.25;4213191;28;20059;-84
2021/03/21 02:18:45;;;;;;;2.20;1.50;;;;;;;1.61;81.09;94386.56;4202834;28;20040;-82
2021/03/21 02:21:08;;;;;;;1.77;1.30;;;;;;;1.64;81.59;94384.59;4202461;28;20174;-83
2021/03/21 02:23:27;;;;;;;2.17;1.30;;;;;;;1.58;81.19;94377.31;4222710;28;20052;-81
2021/03/21 02:25:51;;;;;;;1.80;1.30;;;;;;;1.59;81.24;94383.28;4224718;28;20489;-82
2021/03/21 02:28:21;;;;;;;1.77;1.15;;;;;;;1.44;81.51;94385.22;4212735;28;20415;-70
2021/03/21 02:30:27;;;;;;;2.20;1.45;;;;;;;1.34;82.00;94387.66;4217685;28;20047;-70
2021/03/21 02:32:42;;;;;;;2.20;1.50;;;;;;;1.42;82.27;94372.44;4205661;28;20162;-69
2021/03/21 02:34:50;;;;;;;1.63;1.20;;;;;;;1.41;81.93;94381.09;4212983;28;20106;-70
2021/03/21 02:36:56;;;;;;;1.75;1.40;;;;;;;1.38;82.25;94391.66;4214293;28;20423;-70
2021/03/21 02:39:05;;;;;;;1.85;1.30;;;;;;;1.38;82.36;94383.94;4213347;28;20059;-71
2021/03/21 02:41:13;;;;;;;2.13;1.40;;;;;;;1.36;82.19;94392.72;4214292;28;20051;-69
2021/03/21 02:43:22;;;;;;;1.90;1.40;;;;;;;1.44;82.16;94405.88;4193906;28;20523;-68
2021/03/21 02:45:30;;;;;;;1.90;1.40;;;;;;;1.44;81.91;94387.81;4215439;28;20047;-69
2021/03/21 02:47:31;;;;;;;2.25;1.50;;;;;;;1.44;81.97;94390.38;4209365;28;20048;-70
2021/03/21 02:49:42;;;;;;;2.05;1.40;;;;;;;1.42;82.09;94387.13;4226808;28;20054;-71
2021/03/21 02:51:49;;;;;;;1.88;1.50;;;;;;;1.44;82.24;94377.47;4201941;28;20053;-70
2021/03/21 02:53:54;;;;;;;3.13;1.45;;;;;;;1.32;82.49;94383.56;4204394;28;20386;-70
2021/03/21 02:55:59;;;;;;;1.88;1.23;;;;;;;1.30;82.90;94398.31;4223155;28;20051;-71
2021/03/21 02:58:08;;;;;;;1.90;1.50;;;;;;;1.28;82.62;94374.38;4204476;28;20052;-70
2021/03/21 03:00:10;;;;;;;1.77;1.30;;;;;;;1.30;82.95;94373.31;4220131;28;20050;-69
2021/03/21 03:02:21;;;;;;;1.60;1.38;;;;;;;1.30;82.76;94380.25;4192801;28;20053;-71
2021/03/21 03:04:29;;;;;;;2.20;1.33;;;;;;;1.27;82.76;94376.16;4226257;28;20137;-69
2021/03/21 03:06:35;;;;;;;2.30;1.45;;;;;;;1.28;82.75;94380.34;4228366;28;20505;-70
2021/03/21 03:09:09;;;;;;;1.77;1.38;;;;;;;1.26;82.91;94376.25;4225683;28;20036;-71
2021/03/21 03:11:17;;;;;;;3.15;1.70;;;;;;;1.27;83.08;94381.31;4222913;28;20044;-83
2021/03/21 03:13:28;;;;;;;2.47;1.35;;;;;;;1.33;82.58;94372.28;4212033;28;20416;-83
2021/03/21 03:15:29;;;;;;;2.13;1.40;;;;;;;1.25;83.02;94372.00;4213130;28;20125;-84
2021/03/21 03:17:39;;;;;;;2.50;1.55;;;;;;;1.25;83.07;94377.16;4196061;28;20541;-83
2021/03/21 03:19:59;;;;;;;2.38;1.60;;;;;;;1.26;82.74;94379.66;4196152;28;20052;-82
2021/03/21 03:22:13;;;;;;;2.20;1.63;;;;;;;1.29;82.67;94370.84;4231159;28;20405;-84
2021/03/21 03:24:26;;;;;;;2.70;1.60;;;;;;;1.29;82.66;94363.97;4230939;28;20062;-83
2021/03/21 03:26:38;;;;;;;2.28;1.67;;;;;;;1.29;82.42;94363.09;4213399;28;20495;-82
2021/03/21 03:29:23;;;;;;;3.20;2.00;;;;;;;1.25;83.14;94352.22;4217709;28;20043;-70
2021/03/21 03:31:32;;;;;;;2.83;2.10;;;;;;;1.29;82.72;94363.09;4178368;28;20411;-69
2021/03/21 03:33:33;;;;;;;2.42;1.80;;;;;;;1.23;82.86;94356.66;4212359;28;20056;-69
2021/03/21 03:35:35;;;;;;;2.70;2.05;;;;;;;1.29;83.13;94358.78;4207885;28;20052;-70
2021/03/21 03:37:37;;;;;;;2.88;1.83;;;;;;;1.33;82.98;94370.50;4208927;28;20537;-70
2021/03/21 03:39:40;;;;;;;2.55;1.92;;;;;;;1.46;82.03;94367.03;4208776;28;20044;-70
2021/03/21 03:41:43;;;;;;;2.75;1.90;;;;;;;1.40;81.96;94368.34;4220706;28;20047;-70
2021/03/21 03:44:10;;;;;;;2.58;2.03;;;;;;;1.16;82.70;94366.59;4227761;28;20089;-71
2021/03/21 03:46:48;;;;;;;2.70;2.10;;;;;;;1.25;83.11;94372.00;4200037;28;20048;-71
2021/03/21 03:49:23;;;;;;;2.60;1.95;;;;;;;1.26;82.63;94384.00;4213925;28;20052;-70
2021/03/21 03:51:42;;;;;;;3.13;2.45;;;;;;;1.26;82.80;94376.25;4219736;28;20048;-71
2021/03/21 03:54:02;;;;;;;2.88;2.05;;;;;;;1.22;82.97;94389.34;4210110;28;20371;-69
2021/03/21 03:56:08;;;;;;;3.42;2.50;;;;;;;1.08;83.03;94379.22;4198533;28;20527;-70
2021/03/21 03:58:27;;;;;;;3.30;2.25;;;;;;;1.04;83.68;94387.28;4211997;28;20040;-70
2021/03/21 04:01:05;;;;;;;3.30;2.20;;;;;;;1.08;83.88;94386.97;4223572;28;20044;-69
2021/03/21 04:03:17;;;;;;;3.00;2.30;;;;;;;1.09;83.93;94390.34;4196348;28;20407;-70
2021/03/21 04:05:28;;;;;;;2.53;2.22;;;;;;;1.16;83.62;94382.06;4220176;28;20134;-71
2021/03/21 04:07:58;;;;;;;2.65;2.30;;;;;;;1.22;83.29;94370.47;4209572;28;20496;-70
2021/03/21 04:10:08;;;;;;;2.95;2.15;;;;;;;1.11;83.59;94363.50;4216446;28;20047;-70
2021/03/21 04:12:12;;;;;;;3.78;2.70;;;;;;;1.08;83.87;94379.22;4207894;28;20059;-70
2021/03/21 04:14:44;;;;;;;2.90;2.55;;;;;;;1.13;83.98;94368.56;4225553;28;20056;-70
2021/03/21 04:17:03;;;;;;;3.15;2.13;;;;;;;1.18;83.37;94367.31;4188645;28;20545;-69
2021/03/21 04:19:07;;;;;;;3.15;2.30;;;;;;;1.18;83.38;94359.56;4209072;28;20161;-69
2021/03/21 04:21:37;;;;;;;5.30;3.90;;;;;;;1.17;83.28;94365.66;4213643;28;20051;-70
2021/03/21 04:23:44;;;;;;;3.20;2.45;;;;;;;1.16;83.26;94373.50;4194630;27;20694;-71
2021/03/21 04:25:54;;;;;;;2.65;2.28;;;;;;;1.13;83.46;94384.03;4212664;28;20054;-70
2021/03/21 04:28:04;;;;;;;2.20;1.90;;;;;;;1.09;83.73;94387.78;4212690;28;20519;-70
2021/03/21 04:30:15;;;;;;;2.45;2.10;;;;;;;1.07;83.97;94377.56;4231743;27;20053;-82
2021/03/21 04:32:26;;;;;;;2.70;2.38;;;;;;;1.03;84.00;94378.69;4215960;28;20055;-85
2021/03/21 04:34:28;;;;;;;2.85;2.55;;;;;;;1.07;83.85;94377.56;4225176;28;20048;-83
2021/03/21 04:36:33;;;;;;;3.03;2.72;;;;;;;1.12;82.99;94379.81;4199876;28;20051;-71
2021/03/21 04:38:45;;;;;;;2.85;2.45;;;;;;;1.11;83.64;94371.25;4209154;28;20488;-70
2021/03/21 04:40:47;;;;;;;2.85;2.35;;;;;;;0.97;83.35;94374.00;4211176;28;20452;-70
2021/03/21 04:43:05;;;;;;;3.38;2.35;;;;;;;1.00;84.02;94371.19;4210996;28;20090;-70
2021/03/21 04:45:08;;;;;;;3.03;2.50;;;;;;;0.97;84.01;94376.59;4207953;28;20056;-70
2021/03/21 04:47:30;;;;;;;3.35;2.80;;;;;;;0.91;84.81;94382.19;4210942;28;20044;-69
2021/03/21 04:49:31;;;;;;;4.97;2.60;;;;;;;0.93;84.27;94385.47;4217880;28;20726;-70
2021/03/21 04:51:37;;;;;;;3.67;3.13;;;;;;;0.92;84.94;94388.97;4228455;28;20043;-71
2021/03/21 04:53:41;;;;;;;4.38;3.15;;;;;;;0.86;84.60;94381.66;4227276;28;20043;-71
2021/03/21 04:55:45;;;;;;;4.03;3.05;;;;;;;0.86;84.51;94385.09;4227942;27;20113;-70
2021/03/21 04:57:48;;;;;;;3.90;3.28;;;;;;;0.85;84.79;94374.88;4216873;28;20040;-71
2021/03/21 05:00:20;;;;;;;3.92;3.40;;;;;;;0.88;84.85;94365.13;4207943;28;20055;-70
2021/03/21 05:02:26;;;;;;;4.30;3.10;;;;;;;0.91;84.97;94375.25;4209687;28;20090;-72
2021/03/21 05:04:32;;;;;;;5.05;3.60;;;;;;;0.88;84.62;94374.63;4228797;28;20039;-70
2021/03/21 05:06:40;;;;;;;4.85;3.78;;;;;;;0.92;85.06;94383.81;4215334;28;20494;-70
2021/03/21 05:08:52;;;;;;;3.80;3.40;;;;;;;0.94;84.33;94376.78;4227640;28;20043;-69
2021/03/21 05:10:58;;;;;;;3.97;3.30;;;;;;;0.96;84.30;94362.03;4228282;28;20446;-72
2021/03/21 05:13:05;;;;;;;3.83;3.25;;;;;;;0.97;84.03;94371.44;4225196;28;20052;-71
2021/03/21 05:15:26;;;;;;;4.53;3.58;;;;;;;0.83;84.68;94367.22;4210476;28;20048;-71
2021/03/21 05:17:46;;;;;;;4.28;3.75;;;;;;;0.93;85.09;94349.34;4212055;28;20442;-70
2021/03/21 05:20:05;;;;;;;5.15;3.92;;;;;;;1.02;84.75;94348.69;4210657;28;20117;-71
2021/03/21 05:22:18;;;;;;;4.57;3.47;;;;;;;1.07;84.12;94341.44;4217980;28;20058;-70
2021/03/21 05:24:19;;;;;;;4.35;3.47;;;;;;;1.14;84.07;94339.22;4199788;28;20049;-70
2021/03/21 05:26:29;;;;;;;5.47;4.30;;;;;;;1.16;83.88;94335.63;4225351;28;20071;-71
2021/03/21 05:28:48;;;;;;;4.60;3.80;;;;;;;1.22;83.14;94342.91;4180854;28;20101;-70
2021/03/21 05:30:49;;;;;;;4.70;4.20;;;;;;;1.08;83.61;94342.28;4219160;28;20059;-70
2021/03/21 05:32:51;;;;;;;5.88;4.05;;;;;;;1.09;84.25;94343.91;4209316;28;20062;-70
2021/03/21 05:34:56;;;;;;;4.68;4.13;;;;;;;1.07;83.75;94351.75;4193920;28;20542;-71
2021/03/21 05:37:09;;;;;;;5.18;4.50;;;;;;;1.16;83.86;94353.69;4228739;28;20109;-71
2021/03/21 05:39:22;;;;;;;6.70;4.45;;;;;;;1.23;83.49;94352.31;4228016;28;20414;-70
2021/03/21 05:41:52;;;;;;;4.43;3.80;;;;;;;1.35;82.88;94354.94;4210600;28;20055;-70
2021/03/21 05:44:13;;;;;;;5.18;4.43;;;;;;;1.29;83.41;94360.53;4195737;28;20048;-70
2021/03/21 05:46:27;;;;;;;4.35;3.80;;;;;;;1.33;82.85;94365.34;4218019;27;20422;-71
2021/03/21 05:48:43;;;;;;;3.90;3.50;;;;;;;1.38;82.64;94365.84;4214030;28;20697;-72
2021/03/21 05:51:22;;;;;;;4.00;3.35;;;;;;;1.34;82.74;94367.00;4222346;28;20138;-71
2021/03/21 05:53:52;;;;;;;4.57;3.50;;;;;;;1.41;82.68;94369.97;4223604;28;20048;-72
2021/03/21 05:56:02;;;;;;;3.70;3.15;;;;;;;1.37;82.44;94360.81;4212376;28;20048;-70
2021/03/21 05:58:34;;;;;;;4.60;3.70;;;;;;;1.33;83.17;94370.50;4217893;28;20040;-70
2021/03/21 06:01:03;;;;;;;4.75;3.47;;;;;;;1.29;82.99;94387.19;4216161;27;20448;-72
2021/03/21 06:03:11;;;;;;;3.85;2.97;;;;;;;1.41;83.00;94382.88;4238372;27;20468;-71
2021/03/21 06:05:16;;;;;;;4.32;3.20;;;;;;;1.42;82.97;94387.13;4210554;28;20055;-70
2021/03/21 06:07:52;;;;;;;3.33;2.85;;;;;;;1.43;82.71;94371.50;4224782;28;20039;-72
2021/03/21 06:10:03;;;;;;;3.22;2.78;;;;;;;1.51;82.35;94370.94;4217036;28;20040;-71
2021/03/21 06:12:29;;;;;;;4.85;2.63;;;;;;;1.53;81.95;94373.44;4206279;28;20055;-72
2021/03/21 06:14:54;;;;;;;4.05;2.60;;;;;;;1.62;81.80;94367.59;4226003;28;20134;-70
2021/03/21 06:17:14;;;;;;;7.15;3.20;;;;;;;1.69;81.64;94370.53;4220519;28;20056;-70
2021/03/21 06:19:50;;;;;;;3.60;3.08;;;;;;;1.82;81.13;94373.84;4227114;28;20336;-71
2021/03/21 06:22:06;;;;;;;6.05;4.25;;;;;;;1.84;81.12;94372.78;4220889;28;20534;-71
2021/03/21 06:24:16;;;;;;;5.40;3.08;;;;;;;1.85;80.86;94386.56;4227269;28;20112;-69
2021/03/21 06:26:38;;;;;;;4.00;2.97;;;;;;;1.86;81.14;94390.75;4208565;28;20063;-71
2021/03/21 06:29:33;;;;;;;4.05;2.70;;;;;;;1.82;80.55;94387.56;4219148;27;20062;-71
2021/03/21 06:31:59;;;;;;;3.97;2.90;;;;;;;1.83;81.35;94398.75;4220730;28;20536;-70
2021/03/21 06:34:34;;;;;;;8.52;5.55;;;;;;;1.78;81.17;94406.00;4194643;28;20044;-70
2021/03/21 06:36:56;;;;;;;5.60;4.03;;;;;;;1.80;81.13;94401.53;4219192;28;20044;-73
2021/03/21 06:39:41;;;;;;;3.60;2.67;;;;;;;1.69;81.46;94399.75;4225749;28;20496;-71
2021/03/21 06:41:55;;;;;;;3.17;2.53;;;;;;;1.77;81.22;94401.78;4208572;28;20497;-71
2021/03/21 06:44:20;;;;;;;4.28;3.05;;;;;;;1.75;81.33;94403.66;4209600;28;20510;-71
2021/03/21 06:46:40;;;;;;;3.78;2.63;;;;;;;1.75;81.14;94401.06;4168040;28;20147;-71
2021/03/21 06:49:09;;;;;;;3.50;2.90;;;;;;;1.69;80.90;94393.78;4214314;27;20044;-72
2021/03/21 06:51:37;;;;;;;4.25;2.58;;;;;;;1.38;81.83;94401.19;4211190;28;20048;-70
2021/03/21 06:53:41;;;;;;;4.85;3.08;;;;;;;1.51;82.22;94391.59;4208627;28;20055;-71
2021/03/21 06:55:42;;;;;;;;;;;;;;;1.55;82.32;94392.19;4214545;28;20060;-71
2021/03/21 06:58:14;;;;;;;4.05;2.92;;;;;;;1.52;81.23;94398.41;4227481;28;19923;-72
2021/03/21 07:00:27;;;;;;;3.90;2.70;;;;;;;1.58;81.63;94402.31;4227693;27;20100;-72
2021/03/21 07:02:31;;;;;;;5.07;3.65;;;;;;;1.63;81.21;94390.72;4212099;28;20044;-71
2021/03/21 07:05:03;;;;;;;3.47;2.67;;;;;;;1.58;81.45;94402.31;4224490;28;20094;-71
2021/03/21 07:07:32;;;;;;;3.83;2.88;;;;;;;1.53;81.44;94404.41;4224184;28;20124;-70
2021/03/21 07:09:52;;;;;;;3.88;2.70;;;;;;;1.49;81.93;94400.41;4209128;28;20043;-70
2021/03/21 07:12:12;;;;;;;4.35;3.30;;;;;;;1.50;81.42;94395.09;4226511;28;20602;-71
2021/03/21 07:14:22;;;;;;;4.25;3.13;;;;;;;1.54;81.37;94393.13;4228263;28;20062;-71
2021/03/21 07:16:37;;;;;;;5.32;3.20;;;;;;;1.51;81.66;94391.59;4226531;28;20054;-71
2021/03/21 07:18:52;;;;;;;4.63;3.10;;;;;;;1.56;81.81;94389.50;4210184;28;20139;-70
2021/03/21 07:21:12;;;;;;;4.28;3.20;;;;;;;1.69;81.26;94399.75;4226543;28;20542;-70
2021/03/21 07:23:42;;;;;;;4.75;3.25;;;;;;;1.66;81.55;94394.81;4226533;28;20104;-71
2021/03/21 07:26:03;;;;;;;3.85;3.00;;;;;;;1.58;81.27;94391.97;4208946;28;20063;-70
2021/03/21 07:28:16;;;;;;;4.20;3.08;;;;;;;1.62;81.58;94391.63;4222432;28;20047;-70
2021/03/21 07:30:35;;;;;;;4.28;3.10;;;;;;;1.72;81.06;94389.22;4227399;28;20051;-71
2021/03/21 07:33:28;;;;;;;4.82;3.17;;;;;;;1.63;81.14;94390.72;4209501;28;20060;-70
2021/03/21 07:36:01;;;;;;;6.22;5.10;;;;;;;1.66;81.11;94396.56;4171680;28;20044;-71
2021/03/21 07:38:08;;;;;;;4.47;3.75;;;;;;;1.75;81.84;94391.56;4224495;28;20038;-72
2021/03/21 07:40:17;;;;;;;4.57;3.13;;;;;;;1.58;81.61;94392.78;4206411;28;20055;-72
2021/03/21 07:42:31;;;;;;;6.15;2.88;;;;;;;1.64;81.46;94386.38;4193465;28;20056;-71
2021/03/21 07:45:27;;;;;;;3.72;2.70;;;;;;;1.78;81.75;94390.50;4226612;28;20054;-69
2021/03/21 07:47:49;;;;;;;4.00;2.55;;;;;;;1.81;81.51;94390.28;4214534;28;20103;-72
2021/03/21 07:50:12;;;;;;;3.92;2.83;;;;;;;1.82;81.19;94394.50;4209131;28;20051;-71
2021/03/21 07:52:37;;;;;;;4.47;2.80;;;;;;;1.91;80.96;94380.91;4225405;28;20048;-72
2021/03/21 07:54:55;;;;;;;7.63;3.03;;;;;;;1.97;80.31;94388.19;4232120;28;20059;-71
2021/03/21 07:57:03;;;;;;;3.75;2.45;;;;;;;1.93;80.66;94385.97;4230722;28;20642;-72
2021/03/21 07:59:09;;;;;;;2.92;2.00;;;;;;;1.98;80.58;94378.69;4213908;28;20040;-69
2021/03/21 08:01:11;;;;;;;3.33;2.60;;;;;;;1.94;80.46;94380.69;4231366;28;20527;-71
2021/03/21 08:03:13;;;;;;;4.18;2.42;;;;;;;2.03;80.80;94382.56;4211799;28;20101;-73
2021/03/21 08:05:19;;;;;;;4.68;2.65;;;;;;;2.04;80.13;94379.06;4228816;28;20503;-71
2021/03/21 08:07:28;;;;;;;3.55;2.40;;;;;;;2.00;79.96;94384.56;4206857;28;20051;-70
2021/03/21 08:09:37;;;;;;;3.72;2.72;;;;;;;1.98;80.60;94379.53;4227700;28;20054;-72
2021/03/21 08:11:40;;;;;;;3.78;2.85;;;;;;;1.85;80.32;94378.81;4207415;28;20048;-71
2021/03/21 08:13:43;;;;;;;26.33;17.95;;;;;;;1.81;80.78;94377.38;4202405;28;20959;-72
2021/03/21 08:15:44;;;;;;;5.63;3.50;;;;;;;1.86;80.94;94358.94;4230363;28;20053;-72
2021/03/21 08:17:56;;;;;;;5.20;3.85;;;;;;;1.96;80.62;94359.91;4213084;28;20058;-72
2021/03/21 08:20:02;;;;;;;6.10;3.50;;;;;;;2.13;80.74;94354.28;4229023;28;20066;-71
2021/03/21 08:22:10;;;;;;;4.78;3.50;;;;;;;2.25;79.84;94349.94;4225352;28;20081;-73
2021/03/21 08:24:16;;;;;;;4.72;3.40;;;;;;;2.23;79.73;94351.81;4228846;28;20056;-74
2021/03/21 08:26:25;;;;;;;6.13;3.67;;;;;;;2.12;79.64;94338.91;4205915;28;20086;-72
2021/03/21 08:28:37;;;;;;;5.38;3.30;;;;;;;2.07;80.45;94346.19;4216188;28;20515;-84
2021/03/21 08:31:06;;;;;;;4.30;3.17;;;;;;;2.05;80.48;94356.63;4220665;28;20483;-85
2021/03/21 08:33:10;;;;;;;5.63;3.97;;;;;;;2.08;80.03;94356.38;4218103;28;20525;-83
2021/03/21 08:35:18;;;;;;;4.25;3.47;;;;;;;2.05;80.55;94349.69;4222974;28;20052;-86
2021/03/21 08:37:21;;;;;;;5.45;3.83;;;;;;;2.05;80.80;94348.88;4221354;28;20082;-83
2021/03/21 08:39:37;;;;;;;6.35;3.60;;;;;;;1.97;80.68;94333.94;4237700;28;20067;-85
2021/03/21 08:41:50;;;;;;;5.68;4.13;;;;;;;1.97;80.93;94339.09;4217582;28;20063;-84
2021/03/21 08:44:00;;;;;;;5.70;3.88;;;;;;;2.06;80.41;94345.34;4243864;27;20054;-88
2021/03/21 08:46:02;;;;;;;5.00;3.65;;;;;;;2.08;80.51;94332.31;4237164;28;20058;-84
2021/03/21 08:48:17;;;;;;;6.05;3.70;;;;;;;1.98;80.12;94333.03;4242547;28;20058;-84
2021/03/21 08:50:40;;;;;;;4.75;3.53;;;;;;;2.11;80.92;94325.16;4235885;28;20047;-84
2021/03/21 08:52:45;;;;;;;6.68;3.50;;;;;;;2.19;80.60;94319.38;4217386;28;20059;-86
2021/03/21 08:54:50;;;;;;;5.32;3.70;;;;;;;2.28;80.35;94313.53;4218757;28;20052;-86
2021/03/21 08:57:13;;;;;;;5.13;3.53;;;;;;;2.38;79.45;94319.63;4235691;28;20051;-85
2021/03/21 08:59:36;;;;;;;4.90;3.28;;;;;;;2.35;78.94;94313.88;4223338;28;20044;-85
2021/03/21 09:01:38;;;;;;;5.80;3.55;;;;;;;2.43;79.31;94319.25;4234705;28;20058;-84
2021/03/21 09:03:40;;;;;;;4.53;3.15;;;;;;;2.39;78.85;94320.47;4200399;28;20053;-82
2021/03/21 09:05:52;;;;;;;3.95;3.25;;;;;;;2.44;78.93;94318.31;4216600;28;20052;-84
2021/03/21 09:08:15;;;;;;;5.68;3.80;;;;;;;2.42;78.56;94315.84;4216136;28;20129;-84
2021/03/21 09:10:27;;;;;;;4.07;3.38;;;;;;;2.49;78.72;94311.03;4235422;28;20044;-86
2021/03/21 09:12:36;;;;;;;5.63;4.13;;;;;;;2.49;78.80;94302.47;4236433;28;20056;-83
2021/03/21 09:14:38;;;;;;;18.30;12.45;;;;;;;2.51;79.27;94308.34;4219105;28;20052;-86
2021/03/21 09:17:00;;;;;;;5.88;3.70;;;;;;;2.45;78.94;94301.88;4234752;28;20055;-85
2021/03/21 09:19:16;;;;;;;4.78;3.25;;;;;;;2.55;79.19;94297.63;4226989;28;20108;-85
2021/03/21 09:21:25;;;;;;;6.63;3.45;;;;;;;2.63;78.35;94300.44;4218727;28;20131;-84
2021/03/21 09:23:26;;;;;;;7.38;3.10;;;;;;;2.67;77.67;94294.09;4218086;28;20545;-86
2021/03/21 09:25:30;;;;;;;5.68;3.05;;;;;;;2.76;78.10;94297.69;4219884;28;20052;-83
2021/03/21 09:27:36;;;;;;;5.05;3.28;;;;;;;2.86;78.23;94290.84;4222564;28;20104;-86
2021/03/21 09:29:37;;;;;;;4.88;3.38;;;;;;;3.04;78.06;94287.75;4217350;28;20040;-88
2021/03/21 09:31:40;;;;;;;4.43;3.38;;;;;;;2.85;77.20;94278.03;4235655;28;20513;-84
2021/03/21 09:33:50;;;;;;;3.90;2.83;;;;;;;2.91;77.19;94284.50;4221519;28;20048;-86
2021/03/21 09:36:00;;;;;;;4.07;3.03;;;;;;;2.86;77.86;94280.50;4213489;28;20466;-83
2021/03/21 09:38:10;;;;;;;4.78;3.25;;;;;;;3.02;77.20;94271.50;4219456;28;20544;-84
2021/03/21 09:40:29;;;;;;;4.03;2.70;;;;;;;3.12;76.26;94293.13;4220948;28;20083;-86
2021/03/21 09:42:32;;;;;;;4.57;2.83;;;;;;;3.30;75.76;94295.16;4224731;28;20056;-85
2021/03/21 09:44:33;;;;;;;3.53;2.38;;;;;;;3.32;74.99;94293.28;4238690;28;20050;-83
2021/03/21 09:46:48;;;;;;;4.03;2.70;;;;;;;3.38;76.12;94303.13;4222648;28;20507;-85
2021/03/21 09:49:11;;;;;;;4.18;2.47;;;;;;;3.56;74.58;94300.81;4228183;28;20048;-85
2021/03/21 09:51:23;;;;;;;2.95;2.05;;;;;;;3.57;74.60;94292.91;4229224;28;20050;-72
2021/03/21 09:53:53;;;;;;;4.45;2.20;;;;;;;3.67;73.69;94293.78;4205414;28;20044;-72
2021/03/21 09:55:55;;;;;;;3.30;2.40;;;;;;;3.64;73.30;94285.44;4126877;28;20077;-73
2021/03/21 09:58:09;;;;;;;3.25;2.40;;;;;;;3.75;73.47;94287.16;4207542;28;20692;-72
2021/03/21 10:00:41;;;;;;;4.20;2.60;;;;;;;3.64;73.72;94278.50;4205918;28;20051;-73
2021/03/21 10:02:57;;;;;;;3.67;2.33;;;;;;;3.54;73.67;94277.59;4227222;28;20126;-72
2021/03/21 10:05:04;;;;;;;3.47;2.05;;;;;;;3.59;73.34;94277.22;4211855;28;20130;-73
2021/03/21 10:07:13;;;;;;;4.90;2.65;;;;;;;3.52;73.22;94265.75;4205523;28;20047;-72
2021/03/21 10:09:17;;;;;;;4.28;3.10;;;;;;;3.36;74.19;94271.38;4208078;28;20100;-71
2021/03/21 10:11:26;;;;;;;6.97;3.67;;;;;;;3.33;73.20;94266.44;4227577;28;20062;-72
2021/03/21 10:13:38;;;;;;;4.75;3.30;;;;;;;3.08;74.38;94255.50;4209600;28;20077;-72
2021/03/21 10:16:19;;;;;;;3.65;2.45;;;;;;;3.08;74.55;94266.66;4228789;28;20530;-72
2021/03/21 10:18:43;;;;;;;3.58;2.20;;;;;;;3.06;73.82;94254.78;4227704;28;20108;-73
2021/03/21 10:21:06;;;;;;;4.15;2.70;;;;;;;2.99;74.49;94258.81;4201768;28;20135;-72
2021/03/21 10:23:07;;;;;;;5.07;2.50;;;;;;;2.89;74.45;94258.75;4203821;28;20056;-73
2021/03/21 10:25:12;;;;;;;3.17;2.20;;;;;;;2.85;75.12;94263.34;4234082;28;20577;-87
2021/03/21 10:27:23;;;;;;;3.05;2.20;;;;;;;2.93;75.04;94261.91;4237259;27;20124;-84